createdAt,value
2022-10-05T00:01:31.819Z,94845.19
2022-10-05T00:04:21.725Z,94848.88
2022-10-05T00:07:00.252Z,94846.47
2022-10-05T00:09:31.100Z,94842.59
2022-10-05T00:11:58.039Z,94845.38
2022-10-05T00:14:35.538Z,94838.94
2022-10-05T00:17:05.165Z,94845.88
2022-10-05T00:19:38.181Z,94843.19
2022-10-05T00:22:15.758Z,94843.31
2022-10-05T00:24:43.474Z,94837.91
2022-10-05T00:27:31.270Z,94834.03
2022-10-05T00:30:02.574Z,94834.44
2022-10-05T00:32:30.018Z,94834.22
2022-10-05T00:34:57.726Z,94830.00
2022-10-05T00:37:24.779Z,94830.19
2022-10-05T00:39:53.478Z,94832.81
2022-10-05T00:42:26.293Z,94822.72
2022-10-05T00:45:03.893Z,94819.19
2022-10-05T00:47:50.967Z,94822.84
2022-10-05T00:50:27.727Z,94814.97
2022-10-05T00:53:22.766Z,94824.38
2022-10-05T00:56:13.044Z,94822.97
2022-10-05T00:59:01.623Z,94822.69
2022-10-05T01:01:54.420Z,94819.22
2022-10-05T01:04:29.989Z,94818.53
2022-10-05T01:07:07.898Z,94815.66
2022-10-05T01:10:11.229Z,94810.13
2022-10-05T01:12:50.314Z,94801.81
2022-10-05T01:15:20.061Z,94790.75
2022-10-05T01:18:22.683Z,94789.28
2022-10-05T01:20:54.758Z,94787.13
2022-10-05T01:23:40.604Z,94796.97
2022-10-05T01:26:23.339Z,94796.47
2022-10-05T01:29:05.243Z,94801.59
2022-10-05T01:31:37.466Z,94800.81
2022-10-05T01:34:17.119Z,94800.81
2022-10-05T01:37:08.844Z,94801.25
2022-10-05T01:39:47.360Z,94794.44
2022-10-05T01:42:48.073Z,94791.28
2022-10-05T01:45:38.630Z,94784.66
2022-10-05T01:49:02.588Z,94793.09
2022-10-05T01:51:51.311Z,94788.19
2022-10-05T01:54:36.796Z,94790.84
2022-10-05T01:57:19.141Z,94788.38
2022-10-05T02:00:09.033Z,94787.97
2022-10-05T02:02:47.752Z,94788.06
2022-10-05T02:05:22.346Z,94788.94
2022-10-05T02:07:56.077Z,94789.50
2022-10-05T02:10:30.359Z,94778.34
2022-10-05T02:13:15.621Z,94785.19
2022-10-05T02:15:46.264Z,94777.81
2022-10-05T02:18:30.255Z,94772.19
2022-10-05T02:21:02.993Z,94773.75
2022-10-05T02:23:33.659Z,94775.13
2022-10-05T02:26:01.509Z,94766.94
2022-10-05T02:28:55.482Z,94760.97
2022-10-05T02:31:50.459Z,94767.53
2022-10-05T02:34:22.673Z,94761.28
2022-10-05T02:37:10.319Z,94765.66
2022-10-05T02:39:47.741Z,94760.91
2022-10-05T02:42:32.951Z,94758.34
2022-10-05T02:44:59.559Z,94752.28
2022-10-05T02:47:43.259Z,94751.47
2022-10-05T02:50:16.200Z,94755.09
2022-10-05T02:53:12.754Z,94762.91
2022-10-05T02:56:20.175Z,94759.16
2022-10-05T02:58:50.224Z,94764.06
2022-10-05T03:01:28.100Z,94751.22
2022-10-05T03:04:11.663Z,94755.00
2022-10-05T03:07:07.690Z,94752.81
2022-10-05T03:09:41.382Z,94741.44
2022-10-05T03:12:17.694Z,94733.84
2022-10-05T03:15:09.583Z,94733.34
2022-10-05T03:18:21.734Z,94728.00
2022-10-05T03:20:57.642Z,94731.66
2022-10-05T03:23:33.178Z,94735.63
2022-10-05T03:26:09.001Z,94735.63
2022-10-05T03:28:58.809Z,94737.59
2022-10-05T03:31:46.105Z,94736.38
2022-10-05T03:34:22.502Z,94742.94
2022-10-05T03:37:31.585Z,94741.72
2022-10-05T03:40:09.550Z,94741.72
2022-10-05T03:42:39.843Z,94740.13
2022-10-05T03:45:25.594Z,94755.13
2022-10-05T03:48:01.832Z,94746.91
2022-10-05T03:50:54.505Z,94752.97
2022-10-05T03:53:38.548Z,94747.31
2022-10-05T03:56:13.690Z,94754.78
2022-10-05T03:59:03.009Z,94752.63
2022-10-05T04:01:39.805Z,94758.47
2022-10-05T04:04:13.736Z,94751.13
2022-10-05T04:06:49.225Z,94750.38
2022-10-05T04:09:39.521Z,94744.63
2022-10-05T04:12:15.353Z,94737.66
2022-10-05T04:14:48.471Z,94732.34
2022-10-05T04:17:19.378Z,94733.31
2022-10-05T04:20:02.238Z,94722.63
2022-10-05T04:22:37.260Z,94728.38
2022-10-05T04:25:19.031Z,94724.25
2022-10-05T04:28:09.829Z,94726.22
2022-10-05T04:30:41.776Z,94720.31
2022-10-05T04:33:11.652Z,94716.94
2022-10-05T04:36:00.044Z,94714.06
2022-10-05T04:39:05.309Z,94723.34
2022-10-05T04:41:52.174Z,94717.16
2022-10-05T04:44:48.251Z,94718.81
2022-10-05T04:47:29.346Z,94723.25
2022-10-05T04:50:34.233Z,94713.03
2022-10-05T04:53:33.574Z,94719.16
2022-10-05T04:56:07.056Z,94716.06
2022-10-05T04:58:45.609Z,94714.19
2022-10-05T05:01:35.872Z,94719.31
2022-10-05T05:04:27.380Z,94717.16
2022-10-05T05:07:15.252Z,94721.19
2022-10-05T05:09:41.916Z,94717.22
2022-10-05T05:12:43.727Z,94725.34
2022-10-05T05:15:30.205Z,94727.66
2022-10-05T05:18:12.763Z,94723.28
2022-10-05T05:20:45.334Z,94731.25
2022-10-05T05:23:44.472Z,94725.19
2022-10-05T05:26:29.603Z,94734.63
2022-10-05T05:29:33.896Z,94733.28
2022-10-05T05:32:24.998Z,94748.28
2022-10-05T05:34:57.982Z,94753.06
2022-10-05T05:37:52.178Z,94756.34
2022-10-05T05:40:35.200Z,94759.38
2022-10-05T05:43:20.874Z,94752.81
2022-10-05T05:46:34.015Z,94757.34
2022-10-05T05:49:22.781Z,94765.41
2022-10-05T05:52:16.103Z,94766.63
2022-10-05T05:54:54.749Z,94765.78
2022-10-05T05:57:38.772Z,94776.88
2022-10-05T06:00:15.100Z,94768.97
2022-10-05T06:03:15.050Z,94771.97
2022-10-05T06:05:49.901Z,94781.69
2022-10-05T06:08:29.123Z,94779.28
2022-10-05T06:11:11.228Z,94780.97
2022-10-05T06:13:42.592Z,94783.78
2022-10-05T06:16:39.139Z,94776.00
2022-10-05T06:19:13.953Z,94768.84
2022-10-05T06:21:40.908Z,94775.34
2022-10-05T06:24:31.820Z,94777.31
2022-10-05T06:27:20.534Z,94779.75
2022-10-05T06:30:04.634Z,94780.31
2022-10-05T06:32:49.927Z,94785.41
2022-10-05T06:35:17.780Z,94790.63
2022-10-05T06:38:08.156Z,94796.72
2022-10-05T06:40:59.466Z,94800.81
2022-10-05T06:43:29.449Z,94802.69
2022-10-05T06:46:29.128Z,94808.41
2022-10-05T06:49:19.148Z,94809.97
2022-10-05T06:52:16.279Z,94812.09
2022-10-05T06:55:30.333Z,94813.25
2022-10-05T06:58:18.636Z,94809.81
2022-10-05T07:01:02.964Z,94812.97
2022-10-05T07:03:49.530Z,94812.81
2022-10-05T07:06:34.175Z,94811.56
2022-10-05T07:09:37.530Z,94812.97
2022-10-05T07:12:09.968Z,94815.47
2022-10-05T07:14:48.659Z,94822.72
2022-10-05T07:17:44.312Z,94816.94
2022-10-05T07:20:17.377Z,94823.44
2022-10-05T07:23:23.069Z,94820.94
2022-10-05T07:26:01.900Z,94821.63
2022-10-05T07:28:39.367Z,94816.59
2022-10-05T07:31:31.648Z,94828.63
2022-10-05T07:34:15.445Z,94823.34
2022-10-05T07:37:09.793Z,94827.38
2022-10-05T07:40:01.088Z,94831.94
2022-10-05T07:43:08.898Z,94833.34
2022-10-05T07:45:46.852Z,94834.16
2022-10-05T07:48:33.209Z,94831.53
2022-10-05T07:51:27.587Z,94836.66
2022-10-05T07:54:13.629Z,94832.94
2022-10-05T07:56:44.499Z,94834.25
2022-10-05T07:59:22.337Z,94832.78
2022-10-05T08:01:59.723Z,94834.56
2022-10-05T08:04:55.895Z,94835.91
2022-10-05T08:09:59.501Z,94840.28
2022-10-05T08:13:07.671Z,94843.94
2022-10-05T08:15:43.244Z,94838.09
2022-10-05T08:18:39.743Z,94840.88
2022-10-05T08:21:12.010Z,94841.19
2022-10-05T08:23:55.273Z,94838.00
2022-10-05T08:26:33.597Z,94843.34
2022-10-05T08:29:19.021Z,94843.31
2022-10-05T08:32:02.550Z,94848.78
2022-10-05T08:34:47.869Z,94852.72
2022-10-05T08:37:21.410Z,94852.50
2022-10-05T08:39:52.649Z,94844.47
2022-10-05T08:42:35.454Z,94845.03
2022-10-05T08:45:20.929Z,94851.69
2022-10-05T08:48:15.457Z,94856.78
2022-10-05T08:51:03.885Z,94858.31
2022-10-05T08:53:45.592Z,94856.63
2022-10-05T08:56:42.458Z,94850.47
2022-10-05T08:59:47.364Z,94844.47
2022-10-05T09:02:38.990Z,94845.34
2022-10-05T09:05:24.474Z,94841.13
2022-10-05T09:08:03.629Z,94835.00
2022-10-05T09:10:58.205Z,94840.16
2022-10-05T09:13:39.607Z,94841.25
2022-10-05T09:16:15.284Z,94842.03
2022-10-05T09:19:02.197Z,94856.94
2022-10-05T09:21:36.747Z,94857.47
2022-10-05T09:24:12.549Z,94850.19
2022-10-05T09:26:59.296Z,94850.97
2022-10-05T09:29:31.888Z,94854.13
2022-10-05T09:32:34.316Z,94845.91
2022-10-05T09:35:09.985Z,94848.78
2022-10-05T09:37:36.585Z,94852.28
2022-10-05T09:40:27.957Z,94852.59
2022-10-05T09:43:03.771Z,94852.41
2022-10-05T09:45:35.806Z,94853.25
2022-10-05T09:48:25.948Z,94847.03
2022-10-05T09:51:10.822Z,94849.06
2022-10-05T09:53:52.685Z,94852.59
2022-10-05T09:56:40.934Z,94846.28
2022-10-05T09:59:25.887Z,94850.75
2022-10-05T10:02:16.400Z,94842.19
2022-10-05T10:04:56.318Z,94839.41
2022-10-05T10:07:53.968Z,94844.81
2022-10-05T10:10:58.358Z,94839.19
2022-10-05T10:14:00.861Z,94837.03
2022-10-05T10:16:40.901Z,94830.38
2022-10-05T10:19:35.655Z,94830.28
2022-10-05T10:22:05.337Z,94836.75
2022-10-05T10:24:53.763Z,94834.56
2022-10-05T10:27:33.737Z,94838.22
2022-10-05T10:30:09.429Z,94840.22
2022-10-05T10:32:51.330Z,94838.31
2022-10-05T10:38:42.312Z,94838.06
2022-10-05T10:41:39.586Z,94837.91
2022-10-05T10:44:27.761Z,94841.41
2022-10-05T10:47:13.686Z,94833.94
2022-10-05T10:50:30.317Z,94832.97
2022-10-05T10:53:12.654Z,94829.19
2022-10-05T10:56:07.545Z,94832.00
2022-10-05T10:58:59.678Z,94829.88
2022-10-05T11:01:54.997Z,94822.59
2022-10-05T11:04:40.610Z,94813.13
2022-10-05T11:07:22.466Z,94813.22
2022-10-05T11:10:09.056Z,94808.00
2022-10-05T11:12:51.629Z,94815.66
2022-10-05T11:15:52.519Z,94811.31
2022-10-05T11:18:41.137Z,94810.47
2022-10-05T11:21:17.032Z,94802.78
2022-10-05T11:24:13.086Z,94802.34
2022-10-05T11:26:39.917Z,94810.19
2022-10-05T11:29:06.485Z,94797.00
2022-10-05T11:31:42.489Z,94799.34
2022-10-05T11:34:40.905Z,94800.06
2022-10-05T11:37:13.521Z,94802.81
2022-10-05T11:40:02.896Z,94800.38
2022-10-05T11:42:41.964Z,94801.97
2022-10-05T11:45:23.996Z,94796.53
2022-10-05T11:48:21.901Z,94795.69
2022-10-05T11:51:17.469Z,94796.16
2022-10-05T11:54:06.692Z,94789.53
2022-10-05T11:56:57.307Z,94781.75
2022-10-05T11:59:37.193Z,94781.78
2022-10-05T12:02:43.101Z,94775.91
2022-10-05T12:05:32.635Z,94773.63
2022-10-05T12:08:35.969Z,94767.41
2022-10-05T12:11:15.679Z,94759.63
2022-10-05T12:13:48.424Z,94767.03
2022-10-05T12:16:28.745Z,94760.00
2022-10-05T12:19:09.082Z,94759.25
2022-10-05T12:21:44.291Z,94755.69
2022-10-05T12:24:30.184Z,94761.19
2022-10-05T12:27:02.809Z,94762.75
2022-10-05T12:29:35.378Z,94767.81
2022-10-05T12:32:13.466Z,94756.88
2022-10-05T12:35:03.290Z,94746.75
2022-10-05T12:37:54.199Z,94751.06
2022-10-05T12:40:31.978Z,94745.97
2022-10-05T12:43:20.588Z,94742.84
2022-10-05T12:46:03.511Z,94743.22
2022-10-05T12:49:14.926Z,94737.78
2022-10-05T12:51:48.099Z,94746.34
2022-10-05T12:54:33.105Z,94735.81
2022-10-05T12:57:18.878Z,94740.91
2022-10-05T12:59:55.086Z,94735.06
2022-10-05T13:02:32.592Z,94743.63
2022-10-05T13:05:02.330Z,94735.44
2022-10-05T13:07:35.205Z,94738.56
2022-10-05T13:10:24.683Z,94744.38
2022-10-05T13:13:16.205Z,94746.75
2022-10-05T13:16:15.795Z,94735.84
2022-10-05T13:19:07.604Z,94739.31
2022-10-05T13:21:53.532Z,94731.13
2022-10-05T13:24:59.498Z,94726.41
2022-10-05T13:27:35.516Z,94734.25
2022-10-05T13:30:05.821Z,94738.16
2022-10-05T13:32:36.453Z,94737.38
2022-10-05T13:35:13.462Z,94738.56
2022-10-05T13:38:01.803Z,94737.38
2022-10-05T13:40:45.120Z,94737.34
2022-10-05T13:43:23.674Z,94724.88
2022-10-05T13:45:52.766Z,94729.19
2022-10-05T13:48:50.525Z,94722.13
2022-10-05T13:51:24.568Z,94726.41
2022-10-05T13:54:14.298Z,94720.97
2022-10-05T13:56:46.151Z,94728.75
2022-10-05T13:59:40.284Z,94720.56
2022-10-05T14:02:21.038Z,94723.28
2022-10-05T14:04:59.019Z,94726.41
2022-10-05T14:07:34.223Z,94721.72
2022-10-05T14:10:03.122Z,94718.22
2022-10-05T14:12:39.722Z,94720.22
2022-10-05T14:15:42.084Z,94719.06
2022-10-05T14:18:24.316Z,94717.88
2022-10-05T14:21:09.795Z,94715.56
2022-10-05T14:23:36.465Z,94708.50
2022-10-05T14:26:04.434Z,94712.41
2022-10-05T14:28:38.468Z,94708.53
2022-10-05T14:31:26.607Z,94712.41
2022-10-05T14:33:53.437Z,94717.50
2022-10-05T14:36:36.277Z,94710.84
2022-10-05T14:39:05.168Z,94704.22
2022-10-05T14:41:37.626Z,94710.06
2022-10-05T14:44:13.445Z,94715.13
2022-10-05T14:46:53.254Z,94706.97
2022-10-05T14:49:36.237Z,94696.44
2022-10-05T14:52:28.828Z,94695.25
2022-10-05T14:55:08.790Z,94695.25
2022-10-05T14:58:09.206Z,94699.53
2022-10-05T15:00:48.955Z,94702.28
2022-10-05T15:03:31.874Z,94692.50
2022-10-05T15:06:01.718Z,94689.75
2022-10-05T15:08:45.261Z,94687.81
2022-10-05T15:11:36.819Z,94688.56
2022-10-05T15:14:14.673Z,94674.13
2022-10-05T15:16:42.217Z,94680.38
2022-10-05T15:20:05.195Z,94682.69
2022-10-05T15:22:41.163Z,94681.91
2022-10-05T15:25:22.262Z,94686.56
2022-10-05T15:28:04.134Z,94689.66
2022-10-05T15:30:32.567Z,94687.19
2022-10-05T15:33:35.546Z,94688.72
2022-10-05T15:36:14.891Z,94683.97
2022-10-05T15:38:44.758Z,94687.44
2022-10-05T15:41:17.770Z,94688.94
2022-10-05T15:43:47.206Z,94695.84
2022-10-05T15:46:35.631Z,94689.97
2022-10-05T15:49:11.598Z,94695.69
2022-10-05T15:51:45.237Z,94689.00
2022-10-05T15:54:40.058Z,94695.53
2022-10-05T15:57:25.102Z,94692.75
2022-10-05T16:00:02.122Z,94695.03
2022-10-05T16:02:51.349Z,94691.06
2022-10-05T16:05:57.874Z,94683.63
2022-10-05T16:08:54.037Z,94692.53
2022-10-05T16:11:33.340Z,94698.22
2022-10-05T16:14:19.406Z,94702.44
2022-10-05T16:17:10.828Z,94703.44
2022-10-05T16:19:56.622Z,94709.19
2022-10-05T16:22:37.853Z,94711.41
2022-10-05T16:25:23.446Z,94713.63
2022-10-05T16:28:22.902Z,94719.00
2022-10-05T16:31:01.191Z,94718.50
2022-10-05T16:33:56.637Z,94724.25
2022-10-05T16:36:43.132Z,94728.03
2022-10-05T16:39:20.532Z,94730.22
2022-10-05T16:41:59.976Z,94728.63
2022-10-05T16:44:48.048Z,94726.19
2022-10-05T16:47:33.114Z,94738.50
2022-10-05T16:50:17.877Z,94729.41
2022-10-05T16:52:50.539Z,94737.47
2022-10-05T16:55:38.830Z,94744.31
2022-10-05T16:58:15.940Z,94744.97
2022-10-05T17:01:02.129Z,94738.69
2022-10-05T17:04:00.162Z,94749.88
2022-10-05T17:06:30.179Z,94750.84
2022-10-05T17:09:19.317Z,94756.25
2022-10-05T17:12:20.794Z,94752.25
2022-10-05T17:15:20.768Z,94752.13
2022-10-05T17:18:16.664Z,94766.34
2022-10-05T17:20:43.293Z,94761.88
2022-10-05T17:23:31.289Z,94763.59
2022-10-05T17:26:34.565Z,94769.34
2022-10-05T17:29:15.565Z,94763.00
2022-10-05T17:32:09.580Z,94766.28
2022-10-05T17:34:56.893Z,94776.94
2022-10-05T17:37:38.013Z,94782.22
2022-10-05T17:40:30.752Z,94795.66
2022-10-05T17:43:18.374Z,94788.50
2022-10-05T17:45:45.049Z,94793.06
2022-10-05T17:48:12.899Z,94799.88
2022-10-05T17:51:01.182Z,94798.97
2022-10-05T17:54:01.585Z,94806.22
2022-10-05T17:56:29.659Z,94798.72
2022-10-05T17:58:59.469Z,94802.56
2022-10-05T18:01:30.298Z,94808.97
2022-10-05T18:04:24.871Z,94804.69
2022-10-05T18:07:15.267Z,94811.16
2022-10-05T18:10:20.115Z,94813.34
2022-10-05T18:12:51.214Z,94819.75
2022-10-05T18:15:24.115Z,94816.16
2022-10-05T18:17:56.113Z,94821.91
2022-10-05T18:20:26.568Z,94825.75
2022-10-05T18:23:23.181Z,94827.69
2022-10-05T18:26:01.405Z,94826.53
2022-10-05T18:29:14.087Z,94821.84
2022-10-05T18:31:51.348Z,94823.41
2022-10-05T18:34:38.508Z,94824.19
2022-10-05T18:37:21.586Z,94826.47
2022-10-05T18:40:01.711Z,94828.72
2022-10-05T18:42:28.381Z,94830.91
2022-10-05T18:45:21.933Z,94829.28
2022-10-05T18:48:07.420Z,94827.56
2022-10-05T18:50:51.348Z,94829.75
2022-10-05T18:53:30.140Z,94830.53
2022-10-05T18:56:21.647Z,94844.66
2022-10-05T18:59:00.866Z,94833.47
2022-10-05T19:01:55.318Z,94839.03
2022-10-05T19:04:43.757Z,94840.78
2022-10-05T19:07:23.206Z,94843.53
2022-10-05T19:09:57.678Z,94852.59
2022-10-05T19:12:41.238Z,94853.72
2022-10-05T19:15:17.305Z,94855.09
2022-10-05T19:17:49.967Z,94856.56
2022-10-05T19:20:19.472Z,94865.81
2022-10-05T19:23:09.477Z,94863.34
2022-10-05T19:26:11.922Z,94870.44
2022-10-05T19:29:09.033Z,94867.28
2022-10-05T19:31:44.506Z,94878.09
2022-10-05T19:34:56.578Z,94888.09
2022-10-05T19:37:42.405Z,94885.28
2022-10-05T19:40:24.424Z,94889.84
2022-10-05T19:43:15.591Z,94881.63
2022-10-05T19:46:14.076Z,94891.31
2022-10-05T19:48:48.584Z,94886.25
2022-10-05T19:51:28.794Z,94890.84
2022-10-05T19:54:02.480Z,94887.16
2022-10-05T19:56:34.324Z,94891.97
2022-10-05T19:59:17.476Z,94888.72
2022-10-05T20:01:50.154Z,94892.22
2022-10-05T20:04:32.099Z,94896.81
2022-10-05T20:06:59.717Z,94892.09
2022-10-05T20:09:26.404Z,94894.03
2022-10-05T20:11:53.574Z,94897.50
2022-10-05T20:14:29.306Z,94905.59
2022-10-05T20:17:44.466Z,94911.34
2022-10-05T20:20:45.750Z,94904.53
2022-10-05T20:23:28.031Z,94912.97
2022-10-05T20:26:13.323Z,94928.81
2022-10-05T20:28:40.192Z,94921.72
2022-10-05T20:31:08.041Z,94929.50
2022-10-05T20:33:34.947Z,94928.00
2022-10-05T20:36:03.713Z,94939.13
2022-10-05T20:38:31.640Z,94933.53
2022-10-05T20:40:58.640Z,94948.94
2022-10-05T20:43:25.318Z,94952.31
2022-10-05T20:45:52.331Z,94959.97
2022-10-05T20:48:19.592Z,94949.16
2022-10-05T20:50:47.339Z,94953.22
2022-10-05T20:53:14.042Z,94970.31
2022-10-05T20:55:40.749Z,94965.56
2022-10-05T20:58:09.070Z,94973.22
2022-10-05T21:00:54.614Z,94984.03
2022-10-05T21:03:21.321Z,94976.16
2022-10-05T21:05:48.025Z,94984.47
2022-10-05T21:08:15.275Z,94984.69
2022-10-05T21:10:41.949Z,94988.06
2022-10-05T21:13:09.146Z,94973.63
2022-10-05T21:15:35.837Z,94991.53
2022-10-05T21:18:02.521Z,94989.38
2022-10-05T21:20:29.166Z,94994.63
2022-10-05T21:22:55.770Z,95000.03
2022-10-05T21:25:22.591Z,94999.56
2022-10-05T21:27:50.312Z,95004.63
2022-10-05T21:30:17.184Z,95000.34
2022-10-05T21:32:44.820Z,95006.53
2022-10-05T21:35:11.666Z,94999.44
2022-10-05T21:37:38.486Z,94992.56
2022-10-05T21:40:05.590Z,95014.06
2022-10-05T21:42:32.591Z,95014.84
2022-10-05T21:44:59.338Z,94997.38
2022-10-05T21:47:26.346Z,95021.25
2022-10-05T21:49:54.015Z,95020.78
2022-10-05T21:52:21.489Z,95009.28
2022-10-05T21:54:48.212Z,95024.03
2022-10-05T21:57:15.437Z,95038.63
2022-10-05T21:59:42.641Z,95021.75
2022-10-05T22:02:09.312Z,95030.50
2022-10-05T22:04:35.982Z,95031.34
2022-10-05T22:07:10.553Z,95038.19
2022-10-05T22:09:37.193Z,95034.00
2022-10-05T22:12:04.002Z,95024.22
2022-10-05T22:14:31.497Z,95027.22
2022-10-05T22:16:58.171Z,95050.66
2022-10-05T22:19:24.830Z,95051.94
2022-10-05T22:21:51.541Z,95052.34
2022-10-05T22:24:18.179Z,95059.50
2022-10-05T22:26:47.305Z,95064.41
2022-10-05T22:29:15.955Z,95051.13
2022-10-05T22:31:43.003Z,95069.63
2022-10-05T22:34:09.741Z,95063.00
2022-10-05T22:36:37.462Z,95070.75
2022-10-05T22:39:04.454Z,95075.56
2022-10-05T22:41:31.233Z,95064.88
2022-10-05T22:43:57.890Z,95070.22
2022-10-05T22:46:26.127Z,95064.91
2022-10-05T22:48:52.816Z,95076.16
2022-10-05T22:51:19.522Z,95075.09
2022-10-05T22:53:46.180Z,95074.00
2022-10-05T22:56:14.370Z,95073.03
2022-10-05T22:58:42.369Z,95084.28
2022-10-05T23:01:12.231Z,95079.91
2022-10-05T23:03:39.551Z,95072.31
2022-10-05T23:06:15.264Z,95083.06
2022-10-05T23:08:43.124Z,95084.75
2022-10-05T23:11:18.962Z,95082.25
2022-10-05T23:13:45.660Z,95068.19
2022-10-05T23:16:19.858Z,95076.41
2022-10-05T23:18:52.621Z,95081.00
2022-10-05T23:21:21.105Z,95072.94
2022-10-05T23:23:51.782Z,95088.75
2022-10-05T23:26:22.826Z,95082.59
2022-10-05T23:28:50.289Z,95081.81
2022-10-05T23:31:20.531Z,95084.34
2022-10-05T23:33:47.493Z,95089.06
2022-10-05T23:36:17.661Z,95075.00
2022-10-05T23:38:44.831Z,95096.16
2022-10-05T23:41:12.446Z,95089.53
2022-10-05T23:43:40.442Z,95091.13
2022-10-05T23:46:08.136Z,95099.78
2022-10-05T23:48:38.164Z,95094.91
2022-10-05T23:51:12.831Z,95100.09
2022-10-05T23:53:40.308Z,95104.50
2022-10-05T23:56:07.423Z,95098.50
2022-10-05T23:58:34.728Z,95101.97
